sensor_id;sensor_type;location;lat;lon;timestamp;P1;durP1;ratioP1;P2;durP2;ratioP2
27728;SDS011;15126;42.186;24.340;2022-12-18T00:00:44;44.20;;;39.63;;
27728;SDS011;15126;42.186;24.340;2022-12-18T00:03:12;42.27;;;37.73;;
27728;SDS011;15126;42.186;24.340;2022-12-18T00:05:45;42.63;;;37.67;;
27728;SDS011;15126;42.186;24.340;2022-12-18T00:08:13;38.97;;;34.90;;
27728;SDS011;15126;42.186;24.340;2022-12-18T00:10:40;36.30;;;32.37;;
27728;SDS011;15126;42.186;24.340;2022-12-18T00:13:08;35.87;;;32.03;;
27728;SDS011;15126;42.186;24.340;2022-12-18T00:15:35;36.37;;;30.17;;
27728;SDS011;15126;42.186;24.340;2022-12-18T00:18:02;34.57;;;30.77;;
27728;SDS011;15126;42.186;24.340;2022-12-18T00:20:29;35.53;;;31.80;;
27728;SDS011;15126;42.186;24.340;2022-12-18T00:22:56;33.03;;;29.70;;
27728;SDS011;15126;42.186;24.340;2022-12-18T00:25:23;34.77;;;29.67;;
27728;SDS011;15126;42.186;24.340;2022-12-18T00:27:50;31.87;;;28.40;;
27728;SDS011;15126;42.186;24.340;2022-12-18T00:30:18;31.80;;;28.60;;
27728;SDS011;15126;42.186;24.340;2022-12-18T00:32:45;30.00;;;26.70;;
27728;SDS011;15126;42.186;24.340;2022-12-18T00:35:12;31.10;;;27.80;;
27728;SDS011;15126;42.186;24.340;2022-12-18T00:37:38;32.00;;;28.60;;
27728;SDS011;15126;42.186;24.340;2022-12-18T00:40:06;29.20;;;25.97;;
27728;SDS011;15126;42.186;24.340;2022-12-18T00:42:36;30.60;;;27.33;;
27728;SDS011;15126;42.186;24.340;2022-12-18T00:45:25;29.40;;;26.37;;
27728;SDS011;15126;42.186;24.340;2022-12-18T00:47:53;29.97;;;26.73;;
27728;SDS011;15126;42.186;24.340;2022-12-18T00:50:29;31.03;;;25.87;;
27728;SDS011;15126;42.186;24.340;2022-12-18T00:52:56;31.03;;;25.73;;
27728;SDS011;15126;42.186;24.340;2022-12-18T00:55:23;26.83;;;24.27;;
27728;SDS011;15126;42.186;24.340;2022-12-18T00:57:50;30.20;;;26.93;;
27728;SDS011;15126;42.186;24.340;2022-12-18T01:00:18;29.63;;;26.00;;
27728;SDS011;15126;42.186;24.340;2022-12-18T01:02:46;33.53;;;27.60;;
27728;SDS011;15126;42.186;24.340;2022-12-18T01:05:13;29.27;;;26.20;;
27728;SDS011;15126;42.186;24.340;2022-12-18T01:07:40;32.13;;;27.63;;
27728;SDS011;15126;42.186;24.340;2022-12-18T01:10:09;34.00;;;29.90;;
27728;SDS011;15126;42.186;24.340;2022-12-18T01:12:38;32.63;;;29.40;;
27728;SDS011;15126;42.186;24.340;2022-12-18T01:15:06;33.27;;;29.80;;
27728;SDS011;15126;42.186;24.340;2022-12-18T01:17:36;34.27;;;30.77;;
27728;SDS011;15126;42.186;24.340;2022-12-18T01:20:05;36.63;;;32.70;;
27728;SDS011;15126;42.186;24.340;2022-12-18T01:22:33;33.37;;;30.00;;
27728;SDS011;15126;42.186;24.340;2022-12-18T01:25:00;34.13;;;30.80;;
27728;SDS011;15126;42.186;24.340;2022-12-18T01:27:27;31.47;;;28.33;;
27728;SDS011;15126;42.186;24.340;2022-12-18T01:29:54;28.87;;;25.97;;
27728;SDS011;15126;42.186;24.340;2022-12-18T01:32:21;27.90;;;25.10;;
27728;SDS011;15126;42.186;24.340;2022-12-18T01:34:48;26.17;;;23.40;;
27728;SDS011;15126;42.186;24.340;2022-12-18T01:37:16;28.23;;;25.23;;
27728;SDS011;15126;42.186;24.340;2022-12-18T01:39:43;26.70;;;23.80;;
27728;SDS011;15126;42.186;24.340;2022-12-18T01:42:11;26.47;;;23.97;;
27728;SDS011;15126;42.186;24.340;2022-12-18T01:44:50;27.00;;;24.27;;
27728;SDS011;15126;42.186;24.340;2022-12-18T01:47:24;27.80;;;25.00;;
27728;SDS011;15126;42.186;24.340;2022-12-18T01:49:54;31.10;;;25.17;;
27728;SDS011;15126;42.186;24.340;2022-12-18T01:52:25;29.50;;;26.47;;
27728;SDS011;15126;42.186;24.340;2022-12-18T01:54:54;30.47;;;24.73;;
27728;SDS011;15126;42.186;24.340;2022-12-18T01:57:23;24.53;;;21.97;;
27728;SDS011;15126;42.186;24.340;2022-12-18T01:59:52;25.97;;;23.33;;
27728;SDS011;15126;42.186;24.340;2022-12-18T02:02:23;26.23;;;23.53;;
27728;SDS011;15126;42.186;24.340;2022-12-18T02:04:49;22.73;;;20.50;;
27728;SDS011;15126;42.186;24.340;2022-12-18T02:07:18;24.10;;;20.60;;
27728;SDS011;15126;42.186;24.340;2022-12-18T02:09:55;22.33;;;20.00;;
27728;SDS011;15126;42.186;24.340;2022-12-18T02:12:27;21.50;;;19.33;;
27728;SDS011;15126;42.186;24.340;2022-12-18T02:15:03;21.77;;;19.83;;
27728;SDS011;15126;42.186;24.340;2022-12-18T02:17:35;20.07;;;18.07;;
27728;SDS011;15126;42.186;24.340;2022-12-18T02:20:06;20.47;;;18.40;;
27728;SDS011;15126;42.186;24.340;2022-12-18T02:22:42;18.03;;;16.33;;
27728;SDS011;15126;42.186;24.340;2022-12-18T02:25:20;19.77;;;17.73;;
27728;SDS011;15126;42.186;24.340;2022-12-18T02:28:02;19.07;;;17.07;;
27728;SDS011;15126;42.186;24.340;2022-12-18T02:30:33;20.37;;;18.27;;
27728;SDS011;15126;42.186;24.340;2022-12-18T02:33:04;17.50;;;15.57;;
27728;SDS011;15126;42.186;24.340;2022-12-18T02:35:33;18.07;;;16.17;;
27728;SDS011;15126;42.186;24.340;2022-12-18T02:38:02;17.93;;;16.00;;
27728;SDS011;15126;42.186;24.340;2022-12-18T02:40:30;17.50;;;15.73;;
27728;SDS011;15126;42.186;24.340;2022-12-18T02:43:03;15.67;;;14.17;;
27728;SDS011;15126;42.186;24.340;2022-12-18T02:45:33;18.63;;;16.23;;
27728;SDS011;15126;42.186;24.340;2022-12-18T02:48:00;19.33;;;15.60;;
27728;SDS011;15126;42.186;24.340;2022-12-18T02:50:29;16.17;;;14.57;;
27728;SDS011;15126;42.186;24.340;2022-12-18T02:53:03;16.67;;;14.33;;
27728;SDS011;15126;42.186;24.340;2022-12-18T02:55:39;15.53;;;14.13;;
27728;SDS011;15126;42.186;24.340;2022-12-18T02:58:20;16.07;;;14.57;;
27728;SDS011;15126;42.186;24.340;2022-12-18T03:00:58;15.30;;;13.70;;
27728;SDS011;15126;42.186;24.340;2022-12-18T03:03:29;15.47;;;13.97;;
27728;SDS011;15126;42.186;24.340;2022-12-18T03:06:01;13.43;;;11.27;;
27728;SDS011;15126;42.186;24.340;2022-12-18T03:08:34;14.47;;;12.97;;
27728;SDS011;15126;42.186;24.340;2022-12-18T03:11:07;15.67;;;12.80;;
27728;SDS011;15126;42.186;24.340;2022-12-18T03:13:38;12.37;;;11.23;;
27728;SDS011;15126;42.186;24.340;2022-12-18T03:16:10;13.90;;;12.27;;
27728;SDS011;15126;42.186;24.340;2022-12-18T03:18:42;14.03;;;12.63;;
27728;SDS011;15126;42.186;24.340;2022-12-18T03:21:12;12.33;;;10.87;;
27728;SDS011;15126;42.186;24.340;2022-12-18T03:23:44;12.10;;;11.00;;
27728;SDS011;15126;42.186;24.340;2022-12-18T03:26:15;11.97;;;10.77;;
27728;SDS011;15126;42.186;24.340;2022-12-18T03:28:47;13.53;;;10.73;;
27728;SDS011;15126;42.186;24.340;2022-12-18T03:31:17;10.33;;;9.33;;
27728;SDS011;15126;42.186;24.340;2022-12-18T03:33:47;10.87;;;9.77;;
27728;SDS011;15126;42.186;24.340;2022-12-18T03:36:18;10.03;;;9.00;;
27728;SDS011;15126;42.186;24.340;2022-12-18T03:38:45;11.10;;;10.00;;
27728;SDS011;15126;42.186;24.340;2022-12-18T03:41:14;9.70;;;8.83;;
27728;SDS011;15126;42.186;24.340;2022-12-18T03:43:48;11.00;;;10.00;;
27728;SDS011;15126;42.186;24.340;2022-12-18T03:46:23;10.30;;;9.40;;
27728;SDS011;15126;42.186;24.340;2022-12-18T03:48:56;10.10;;;9.20;;
27728;SDS011;15126;42.186;24.340;2022-12-18T03:51:29;11.10;;;8.67;;
27728;SDS011;15126;42.186;24.340;2022-12-18T03:54:03;9.40;;;8.50;;
27728;SDS011;15126;42.186;24.340;2022-12-18T03:56:33;8.77;;;7.90;;
27728;SDS011;15126;42.186;24.340;2022-12-18T03:59:08;8.83;;;7.37;;
27728;SDS011;15126;42.186;24.340;2022-12-18T04:01:38;8.50;;;7.70;;
27728;SDS011;15126;42.186;24.340;2022-12-18T04:04:08;8.47;;;7.73;;
27728;SDS011;15126;42.186;24.340;2022-12-18T04:06:37;8.10;;;7.27;;
27728;SDS011;15126;42.186;24.340;2022-12-18T04:09:05;8.90;;;7.97;;
27728;SDS011;15126;42.186;24.340;2022-12-18T04:11:32;8.70;;;7.80;;
27728;SDS011;15126;42.186;24.340;2022-12-18T04:13:59;8.73;;;7.93;;
27728;SDS011;15126;42.186;24.340;2022-12-18T04:16:27;9.77;;;8.37;;
27728;SDS011;15126;42.186;24.340;2022-12-18T04:18:55;8.70;;;7.83;;
27728;SDS011;15126;42.186;24.340;2022-12-18T04:21:21;9.60;;;8.70;;
27728;SDS011;15126;42.186;24.340;2022-12-18T04:23:48;9.07;;;8.17;;
27728;SDS011;15126;42.186;24.340;2022-12-18T04:26:15;9.57;;;8.57;;
27728;SDS011;15126;42.186;24.340;2022-12-18T04:28:42;9.27;;;8.27;;
27728;SDS011;15126;42.186;24.340;2022-12-18T04:31:09;9.60;;;8.70;;
27728;SDS011;15126;42.186;24.340;2022-12-18T04:33:38;9.70;;;8.70;;
27728;SDS011;15126;42.186;24.340;2022-12-18T04:36:05;9.57;;;8.20;;
27728;SDS011;15126;42.186;24.340;2022-12-18T04:38:32;10.70;;;9.47;;
27728;SDS011;15126;42.186;24.340;2022-12-18T04:40:59;9.27;;;8.47;;
27728;SDS011;15126;42.186;24.340;2022-12-18T04:43:26;7.50;;;6.80;;
27728;SDS011;15126;42.186;24.340;2022-12-18T04:45:53;9.60;;;8.57;;
27728;SDS011;15126;42.186;24.340;2022-12-18T04:48:20;9.47;;;8.07;;
27728;SDS011;15126;42.186;24.340;2022-12-18T04:50:48;9.43;;;8.03;;
27728;SDS011;15126;42.186;24.340;2022-12-18T04:53:15;11.40;;;9.13;;
27728;SDS011;15126;42.186;24.340;2022-12-18T04:55:42;9.57;;;8.43;;
27728;SDS011;15126;42.186;24.340;2022-12-18T04:58:08;10.43;;;9.13;;
27728;SDS011;15126;42.186;24.340;2022-12-18T05:00:35;10.27;;;9.20;;
27728;SDS011;15126;42.186;24.340;2022-12-18T05:03:02;11.17;;;9.53;;
27728;SDS011;15126;42.186;24.340;2022-12-18T05:05:29;11.43;;;9.50;;
27728;SDS011;15126;42.186;24.340;2022-12-18T05:07:57;14.10;;;9.30;;
27728;SDS011;15126;42.186;24.340;2022-12-18T05:10:24;11.23;;;10.03;;
27728;SDS011;15126;42.186;24.340;2022-12-18T05:12:51;10.27;;;9.37;;
27728;SDS011;15126;42.186;24.340;2022-12-18T05:15:27;10.80;;;9.80;;
27728;SDS011;15126;42.186;24.340;2022-12-18T05:17:55;11.83;;;10.10;;
27728;SDS011;15126;42.186;24.340;2022-12-18T05:20:22;11.10;;;10.00;;
27728;SDS011;15126;42.186;24.340;2022-12-18T05:22:49;12.13;;;10.03;;
27728;SDS011;15126;42.186;24.340;2022-12-18T05:25:18;14.57;;;10.40;;
27728;SDS011;15126;42.186;24.340;2022-12-18T05:27:46;10.80;;;9.70;;
27728;SDS011;15126;42.186;24.340;2022-12-18T05:30:14;11.57;;;10.47;;
27728;SDS011;15126;42.186;24.340;2022-12-18T05:32:41;12.53;;;10.80;;
27728;SDS011;15126;42.186;24.340;2022-12-18T05:35:09;12.83;;;11.63;;
27728;SDS011;15126;42.186;24.340;2022-12-18T05:37:37;12.20;;;10.30;;
27728;SDS011;15126;42.186;24.340;2022-12-18T05:40:04;12.53;;;11.27;;
27728;SDS011;15126;42.186;24.340;2022-12-18T05:42:33;12.73;;;11.43;;
27728;SDS011;15126;42.186;24.340;2022-12-18T05:45:00;12.20;;;10.30;;
27728;SDS011;15126;42.186;24.340;2022-12-18T05:47:27;11.23;;;10.13;;
27728;SDS011;15126;42.186;24.340;2022-12-18T05:49:57;14.60;;;13.17;;
27728;SDS011;15126;42.186;24.340;2022-12-18T05:52:24;13.07;;;11.73;;
27728;SDS011;15126;42.186;24.340;2022-12-18T05:54:51;16.53;;;15.10;;
27728;SDS011;15126;42.186;24.340;2022-12-18T05:57:18;11.10;;;10.00;;
27728;SDS011;15126;42.186;24.340;2022-12-18T05:59:46;12.13;;;11.00;;
27728;SDS011;15126;42.186;24.340;2022-12-18T06:02:13;12.27;;;10.97;;
27728;SDS011;15126;42.186;24.340;2022-12-18T06:04:40;16.77;;;11.70;;
27728;SDS011;15126;42.186;24.340;2022-12-18T06:07:09;12.57;;;11.27;;
27728;SDS011;15126;42.186;24.340;2022-12-18T06:09:35;15.97;;;11.53;;
27728;SDS011;15126;42.186;24.340;2022-12-18T06:12:02;12.00;;;10.40;;
27728;SDS011;15126;42.186;24.340;2022-12-18T06:14:29;11.60;;;10.60;;
27728;SDS011;15126;42.186;24.340;2022-12-18T06:16:58;13.10;;;11.73;;
27728;SDS011;15126;42.186;24.340;2022-12-18T06:19:25;14.67;;;10.80;;
27728;SDS011;15126;42.186;24.340;2022-12-18T06:21:51;11.83;;;10.63;;
27728;SDS011;15126;42.186;24.340;2022-12-18T06:24:18;12.10;;;10.90;;
27728;SDS011;15126;42.186;24.340;2022-12-18T06:26:45;11.90;;;10.70;;
27728;SDS011;15126;42.186;24.340;2022-12-18T06:29:12;12.93;;;11.60;;
27728;SDS011;15126;42.186;24.340;2022-12-18T06:31:39;10.50;;;9.40;;
27728;SDS011;15126;42.186;24.340;2022-12-18T06:34:07;12.57;;;11.37;;
27728;SDS011;15126;42.186;24.340;2022-12-18T06:36:34;15.10;;;11.77;;
27728;SDS011;15126;42.186;24.340;2022-12-18T06:39:01;10.47;;;9.47;;
27728;SDS011;15126;42.186;24.340;2022-12-18T06:41:28;13.20;;;11.90;;
27728;SDS011;15126;42.186;24.340;2022-12-18T06:43:54;13.20;;;10.57;;
27728;SDS011;15126;42.186;24.340;2022-12-18T06:46:21;11.00;;;10.00;;
27728;SDS011;15126;42.186;24.340;2022-12-18T06:48:48;11.27;;;9.27;;
27728;SDS011;15126;42.186;24.340;2022-12-18T06:51:18;10.77;;;9.27;;
27728;SDS011;15126;42.186;24.340;2022-12-18T06:53:46;10.70;;;9.40;;
27728;SDS011;15126;42.186;24.340;2022-12-18T06:56:13;10.80;;;9.73;;
27728;SDS011;15126;42.186;24.340;2022-12-18T06:58:40;13.17;;;10.97;;
27728;SDS011;15126;42.186;24.340;2022-12-18T07:01:08;11.57;;;10.20;;
27728;SDS011;15126;42.186;24.340;2022-12-18T07:03:36;10.97;;;10.00;;
27728;SDS011;15126;42.186;24.340;2022-12-18T07:06:04;11.63;;;10.53;;
27728;SDS011;15126;42.186;24.340;2022-12-18T07:08:33;11.13;;;10.00;;
27728;SDS011;15126;42.186;24.340;2022-12-18T07:11:02;12.23;;;11.03;;
27728;SDS011;15126;42.186;24.340;2022-12-18T07:13:30;16.43;;;14.63;;
27728;SDS011;15126;42.186;24.340;2022-12-18T07:16:02;16.80;;;14.10;;
27728;SDS011;15126;42.186;24.340;2022-12-18T07:18:33;18.03;;;15.43;;
27728;SDS011;15126;42.186;24.340;2022-12-18T07:21:03;27.83;;;19.73;;
27728;SDS011;15126;42.186;24.340;2022-12-18T07:23:33;22.83;;;15.77;;
27728;SDS011;15126;42.186;24.340;2022-12-18T07:26:02;35.73;;;20.20;;
27728;SDS011;15126;42.186;24.340;2022-12-18T07:28:29;42.03;;;24.53;;
27728;SDS011;15126;42.186;24.340;2022-12-18T07:30:56;27.70;;;18.77;;
27728;SDS011;15126;42.186;24.340;2022-12-18T07:33:24;22.97;;;18.03;;
27728;SDS011;15126;42.186;24.340;2022-12-18T07:35:50;21.90;;;17.60;;
27728;SDS011;15126;42.186;24.340;2022-12-18T07:38:17;16.80;;;14.90;;
27728;SDS011;15126;42.186;24.340;2022-12-18T07:40:45;16.63;;;13.00;;
27728;SDS011;15126;42.186;24.340;2022-12-18T07:43:12;14.90;;;12.80;;
27728;SDS011;15126;42.186;24.340;2022-12-18T07:45:39;15.33;;;11.83;;
27728;SDS011;15126;42.186;24.340;2022-12-18T07:48:06;15.20;;;10.87;;
27728;SDS011;15126;42.186;24.340;2022-12-18T07:50:33;17.30;;;12.77;;
27728;SDS011;15126;42.186;24.340;2022-12-18T07:52:59;16.90;;;13.77;;
27728;SDS011;15126;42.186;24.340;2022-12-18T07:55:28;13.70;;;12.03;;
27728;SDS011;15126;42.186;24.340;2022-12-18T07:57:57;13.70;;;12.43;;
27728;SDS011;15126;42.186;24.340;2022-12-18T08:00:26;20.37;;;13.00;;
27728;SDS011;15126;42.186;24.340;2022-12-18T08:02:53;14.57;;;13.17;;
27728;SDS011;15126;42.186;24.340;2022-12-18T08:05:20;20.17;;;12.77;;
27728;SDS011;15126;42.186;24.340;2022-12-18T08:07:47;19.93;;;15.43;;
27728;SDS011;15126;42.186;24.340;2022-12-18T08:10:16;18.03;;;15.33;;
27728;SDS011;15126;42.186;24.340;2022-12-18T08:12:43;14.97;;;13.07;;
27728;SDS011;15126;42.186;24.340;2022-12-18T08:15:11;16.97;;;13.87;;
27728;SDS011;15126;42.186;24.340;2022-12-18T08:17:38;14.83;;;13.27;;
27728;SDS011;15126;42.186;24.340;2022-12-18T08:20:05;12.87;;;11.20;;
27728;SDS011;15126;42.186;24.340;2022-12-18T08:22:33;19.43;;;12.30;;
27728;SDS011;15126;42.186;24.340;2022-12-18T08:25:01;14.87;;;13.33;;
27728;SDS011;15126;42.186;24.340;2022-12-18T08:27:28;13.33;;;12.03;;
27728;SDS011;15126;42.186;24.340;2022-12-18T08:29:55;18.73;;;11.80;;
27728;SDS011;15126;42.186;24.340;2022-12-18T08:32:24;14.60;;;12.47;;
27728;SDS011;15126;42.186;24.340;2022-12-18T08:34:51;12.70;;;11.13;;
27728;SDS011;15126;42.186;24.340;2022-12-18T08:37:18;15.60;;;11.23;;
27728;SDS011;15126;42.186;24.340;2022-12-18T08:39:45;12.80;;;11.00;;
27728;SDS011;15126;42.186;24.340;2022-12-18T08:42:11;14.33;;;11.60;;
27728;SDS011;15126;42.186;24.340;2022-12-18T08:44:58;13.83;;;12.00;;
27728;SDS011;15126;42.186;24.340;2022-12-18T08:47:26;14.47;;;11.53;;
27728;SDS011;15126;42.186;24.340;2022-12-18T08:49:53;14.53;;;11.37;;
27728;SDS011;15126;42.186;24.340;2022-12-18T08:52:19;15.53;;;13.50;;
27728;SDS011;15126;42.186;24.340;2022-12-18T08:54:47;13.63;;;12.20;;
27728;SDS011;15126;42.186;24.340;2022-12-18T08:57:16;13.03;;;11.73;;
27728;SDS011;15126;42.186;24.340;2022-12-18T08:59:43;14.20;;;12.77;;
27728;SDS011;15126;42.186;24.340;2022-12-18T09:02:10;15.47;;;11.77;;
27728;SDS011;15126;42.186;24.340;2022-12-18T09:04:39;13.27;;;11.50;;
27728;SDS011;15126;42.186;24.340;2022-12-18T09:07:06;14.43;;;12.37;;
27728;SDS011;15126;42.186;24.340;2022-12-18T09:09:34;13.80;;;11.30;;
27728;SDS011;15126;42.186;24.340;2022-12-18T09:12:02;15.00;;;13.33;;
27728;SDS011;15126;42.186;24.340;2022-12-18T09:14:29;18.83;;;13.87;;
27728;SDS011;15126;42.186;24.340;2022-12-18T09:16:56;15.47;;;12.80;;
27728;SDS011;15126;42.186;24.340;2022-12-18T09:19:23;13.57;;;11.90;;
27728;SDS011;15126;42.186;24.340;2022-12-18T09:21:51;12.97;;;11.57;;
27728;SDS011;15126;42.186;24.340;2022-12-18T09:24:18;14.10;;;12.70;;
27728;SDS011;15126;42.186;24.340;2022-12-18T09:26:45;12.07;;;9.53;;
27728;SDS011;15126;42.186;24.340;2022-12-18T09:29:12;11.27;;;10.13;;
27728;SDS011;15126;42.186;24.340;2022-12-18T09:31:39;12.57;;;11.17;;
27728;SDS011;15126;42.186;24.340;2022-12-18T09:34:06;10.87;;;9.77;;
27728;SDS011;15126;42.186;24.340;2022-12-18T09:36:33;11.13;;;9.50;;
27728;SDS011;15126;42.186;24.340;2022-12-18T09:39:02;13.30;;;10.50;;
27728;SDS011;15126;42.186;24.340;2022-12-18T09:41:34;15.90;;;11.33;;
27728;SDS011;15126;42.186;24.340;2022-12-18T09:44:17;20.27;;;18.27;;
27728;SDS011;15126;42.186;24.340;2022-12-18T09:46:52;98.13;;;88.33;;
27728;SDS011;15126;42.186;24.340;2022-12-18T09:49:26;118.30;;;106.23;;
27728;SDS011;15126;42.186;24.340;2022-12-18T09:51:56;74.97;;;66.87;;
27728;SDS011;15126;42.186;24.340;2022-12-18T09:54:31;40.83;;;37.07;;
27728;SDS011;15126;42.186;24.340;2022-12-18T09:57:02;20.20;;;18.47;;
27728;SDS011;15126;42.186;24.340;2022-12-18T09:59:30;29.70;;;27.20;;
27728;SDS011;15126;42.186;24.340;2022-12-18T10:04:54;19.10;;;16.97;;
27728;SDS011;15126;42.186;24.340;2022-12-18T10:07:30;20.87;;;18.13;;
27728;SDS011;15126;42.186;24.340;2022-12-18T10:10:06;43.67;;;36.90;;
27728;SDS011;15126;42.186;24.340;2022-12-18T10:12:46;15.37;;;13.87;;
27728;SDS011;15126;42.186;24.340;2022-12-18T10:15:23;16.47;;;14.70;;
27728;SDS011;15126;42.186;24.340;2022-12-18T10:17:58;17.83;;;12.47;;
27728;SDS011;15126;42.186;24.340;2022-12-18T10:20:38;16.13;;;13.30;;
27728;SDS011;15126;42.186;24.340;2022-12-18T10:23:11;13.43;;;11.20;;
27728;SDS011;15126;42.186;24.340;2022-12-18T10:25:47;32.23;;;26.70;;
27728;SDS011;15126;42.186;24.340;2022-12-18T10:28:20;23.30;;;15.23;;
27728;SDS011;15126;42.186;24.340;2022-12-18T10:52:18;19.40;;;14.10;;
27728;SDS011;15126;42.186;24.340;2022-12-18T10:54:50;15.27;;;13.67;;
27728;SDS011;15126;42.186;24.340;2022-12-18T10:57:33;17.30;;;14.87;;
27728;SDS011;15126;42.186;24.340;2022-12-18T11:02:48;13.60;;;12.20;;
27728;SDS011;15126;42.186;24.340;2022-12-18T11:05:26;12.13;;;10.83;;
27728;SDS011;15126;42.186;24.340;2022-12-18T11:07:56;11.97;;;10.77;;
27728;SDS011;15126;42.186;24.340;2022-12-18T11:10:26;13.50;;;12.10;;
27728;SDS011;15126;42.186;24.340;2022-12-18T11:12:57;13.23;;;11.37;;
27728;SDS011;15126;42.186;24.340;2022-12-18T11:15:36;14.63;;;12.07;;
27728;SDS011;15126;42.186;24.340;2022-12-18T11:18:13;16.83;;;14.07;;
27728;SDS011;15126;42.186;24.340;2022-12-18T11:20:49;14.47;;;13.03;;
27728;SDS011;15126;42.186;24.340;2022-12-18T11:23:19;16.63;;;12.97;;
27728;SDS011;15126;42.186;24.340;2022-12-18T11:25:52;12.33;;;11.13;;
27728;SDS011;15126;42.186;24.340;2022-12-18T11:28:25;14.13;;;12.63;;
27728;SDS011;15126;42.186;24.340;2022-12-18T11:31:11;14.20;;;11.07;;
27728;SDS011;15126;42.186;24.340;2022-12-18T11:33:54;14.83;;;12.33;;
27728;SDS011;15126;42.186;24.340;2022-12-18T11:36:28;14.43;;;12.27;;
27728;SDS011;15126;42.186;24.340;2022-12-18T11:38:59;11.30;;;10.07;;
27728;SDS011;15126;42.186;24.340;2022-12-18T11:41:32;14.93;;;12.17;;
27728;SDS011;15126;42.186;24.340;2022-12-18T11:44:22;12.77;;;11.43;;
27728;SDS011;15126;42.186;24.340;2022-12-18T11:46:55;16.10;;;13.63;;
27728;SDS011;15126;42.186;24.340;2022-12-18T11:49:28;23.27;;;19.67;;
27728;SDS011;15126;42.186;24.340;2022-12-18T11:52:00;12.53;;;11.23;;
27728;SDS011;15126;42.186;24.340;2022-12-18T11:54:37;11.77;;;10.20;;
27728;SDS011;15126;42.186;24.340;2022-12-18T11:57:05;16.40;;;11.90;;
27728;SDS011;15126;42.186;24.340;2022-12-18T11:59:38;13.00;;;11.70;;
27728;SDS011;15126;42.186;24.340;2022-12-18T12:02:26;14.83;;;13.17;;
27728;SDS011;15126;42.186;24.340;2022-12-18T12:08:15;19.47;;;15.57;;
27728;SDS011;15126;42.186;24.340;2022-12-18T12:10:52;19.20;;;15.17;;
27728;SDS011;15126;42.186;24.340;2022-12-18T12:13:35;17.67;;;15.87;;
27728;SDS011;15126;42.186;24.340;2022-12-18T12:16:14;18.83;;;15.83;;
27728;SDS011;15126;42.186;24.340;2022-12-18T12:18:48;19.20;;;15.10;;
27728;SDS011;15126;42.186;24.340;2022-12-18T12:21:23;21.07;;;16.83;;
27728;SDS011;15126;42.186;24.340;2022-12-18T12:23:56;22.50;;;17.43;;
27728;SDS011;15126;42.186;24.340;2022-12-18T12:26:34;21.70;;;17.87;;
27728;SDS011;15126;42.186;24.340;2022-12-18T12:29:16;19.27;;;16.27;;
27728;SDS011;15126;42.186;24.340;2022-12-18T12:31:58;18.77;;;16.60;;
27728;SDS011;15126;42.186;24.340;2022-12-18T12:34:34;20.67;;;18.20;;
27728;SDS011;15126;42.186;24.340;2022-12-18T12:37:11;20.70;;;18.33;;
27728;SDS011;15126;42.186;24.340;2022-12-18T12:39:49;18.90;;;16.90;;
27728;SDS011;15126;42.186;24.340;2022-12-18T12:42:24;17.20;;;13.93;;
27728;SDS011;15126;42.186;24.340;2022-12-18T12:45:15;19.83;;;15.30;;
27728;SDS011;15126;42.186;24.340;2022-12-18T12:47:45;19.77;;;14.07;;
27728;SDS011;15126;42.186;24.340;2022-12-18T12:50:14;18.57;;;14.80;;
27728;SDS011;15126;42.186;24.340;2022-12-18T12:52:44;36.80;;;26.70;;
27728;SDS011;15126;42.186;24.340;2022-12-18T12:55:14;27.07;;;20.57;;
27728;SDS011;15126;42.186;24.340;2022-12-18T12:57:48;60.57;;;40.57;;
27728;SDS011;15126;42.186;24.340;2022-12-18T13:00:24;23.57;;;18.07;;
27728;SDS011;15126;42.186;24.340;2022-12-18T13:02:56;19.60;;;15.80;;
27728;SDS011;15126;42.186;24.340;2022-12-18T13:05:34;27.10;;;21.33;;
27728;SDS011;15126;42.186;24.340;2022-12-18T13:08:05;23.27;;;18.10;;
27728;SDS011;15126;42.186;24.340;2022-12-18T13:10:35;23.20;;;18.37;;
27728;SDS011;15126;42.186;24.340;2022-12-18T13:13:05;34.37;;;24.47;;
27728;SDS011;15126;42.186;24.340;2022-12-18T13:15:34;38.77;;;28.60;;
27728;SDS011;15126;42.186;24.340;2022-12-18T13:18:09;24.87;;;20.17;;
27728;SDS011;15126;42.186;24.340;2022-12-18T13:20:40;25.90;;;21.37;;
27728;SDS011;15126;42.186;24.340;2022-12-18T13:23:31;40.37;;;30.63;;
27728;SDS011;15126;42.186;24.340;2022-12-18T13:29:01;21.03;;;18.83;;
27728;SDS011;15126;42.186;24.340;2022-12-18T13:34:26;29.73;;;22.70;;
27728;SDS011;15126;42.186;24.340;2022-12-18T13:36:56;21.23;;;17.53;;
27728;SDS011;15126;42.186;24.340;2022-12-18T13:39:43;26.27;;;19.97;;
27728;SDS011;15126;42.186;24.340;2022-12-18T13:45:44;23.00;;;20.10;;
27728;SDS011;15126;42.186;24.340;2022-12-18T13:48:21;20.63;;;17.97;;
27728;SDS011;15126;42.186;24.340;2022-12-18T13:50:52;22.73;;;17.67;;
27728;SDS011;15126;42.186;24.340;2022-12-18T13:53:24;25.67;;;21.73;;
27728;SDS011;15126;42.186;24.340;2022-12-18T13:55:53;34.13;;;28.00;;
27728;SDS011;15126;42.186;24.340;2022-12-18T13:58:21;28.67;;;20.70;;
27728;SDS011;15126;42.186;24.340;2022-12-18T14:00:49;24.13;;;18.33;;
27728;SDS011;15126;42.186;24.340;2022-12-18T14:03:17;29.73;;;21.20;;
27728;SDS011;15126;42.186;24.340;2022-12-18T14:05:46;23.07;;;20.50;;
27728;SDS011;15126;42.186;24.340;2022-12-18T14:08:20;20.23;;;18.10;;
27728;SDS011;15126;42.186;24.340;2022-12-18T14:10:47;20.07;;;17.03;;
27728;SDS011;15126;42.186;24.340;2022-12-18T14:13:17;20.80;;;18.57;;
27728;SDS011;15126;42.186;24.340;2022-12-18T14:15:50;23.57;;;20.67;;
27728;SDS011;15126;42.186;24.340;2022-12-18T14:18:19;62.13;;;55.10;;
27728;SDS011;15126;42.186;24.340;2022-12-18T14:20:50;97.03;;;79.13;;
27728;SDS011;15126;42.186;24.340;2022-12-18T14:23:25;53.90;;;43.73;;
27728;SDS011;15126;42.186;24.340;2022-12-18T14:25:57;66.53;;;49.50;;
27728;SDS011;15126;42.186;24.340;2022-12-18T14:28:24;85.17;;;67.63;;
27728;SDS011;15126;42.186;24.340;2022-12-18T14:30:53;69.37;;;57.43;;
27728;SDS011;15126;42.186;24.340;2022-12-18T14:33:21;27.20;;;23.77;;
27728;SDS011;15126;42.186;24.340;2022-12-18T14:35:53;65.40;;;56.37;;
27728;SDS011;15126;42.186;24.340;2022-12-18T14:38:21;32.40;;;26.97;;
27728;SDS011;15126;42.186;24.340;2022-12-18T14:40:54;31.40;;;23.73;;
27728;SDS011;15126;42.186;24.340;2022-12-18T14:43:23;33.63;;;27.83;;
27728;SDS011;15126;42.186;24.340;2022-12-18T14:45:50;35.40;;;29.80;;
27728;SDS011;15126;42.186;24.340;2022-12-18T14:48:19;145.33;;;103.70;;
27728;SDS011;15126;42.186;24.340;2022-12-18T14:50:54;126.87;;;103.83;;
27728;SDS011;15126;42.186;24.340;2022-12-18T14:53:24;19.40;;;17.30;;
27728;SDS011;15126;42.186;24.340;2022-12-18T14:56:00;19.27;;;16.80;;
27728;SDS011;15126;42.186;24.340;2022-12-18T14:58:29;23.13;;;19.50;;
27728;SDS011;15126;42.186;24.340;2022-12-18T15:00:56;27.40;;;23.53;;
27728;SDS011;15126;42.186;24.340;2022-12-18T15:03:24;34.10;;;26.23;;
27728;SDS011;15126;42.186;24.340;2022-12-18T15:05:51;30.43;;;23.40;;
27728;SDS011;15126;42.186;24.340;2022-12-18T15:08:27;26.10;;;20.93;;